CYOA

Ekati Airport

Ekati, Northwest Territories, Canada
METAR CYOA 160000Z 11018KT 8SM DRSN BKN065 OVC100 M22/M25 A2959 RMK SC5AC3 LAST OB/NEXT 161200Z
Observed Flight Rules
Dec-16 @ 00:00 UTC (11 hours ago) Visual Flight Rules
Wind Visibility Clouds Conditions
110° at 18 knots 8 miles
  • Broken at 6,500' AGL
  • Overcast at 10,000' AGL
  • Low drifting
  • Snow
Temperatures Readings
Current -22°C / -8°F
Dewpoint -25°C / -13°F
Humidity 77%
Altimeter 29.59" Hg
Pressure 1002 hPa
Elevation 469
METAR CYOA 160000Z 11018KT 8SM DRSN BKN065 OVC100 M22/M25 A2959 RMK SC5AC3 LAST OB/NEXT 161200Z
Observed Flight Rules
Dec-16 @ 00:00 UTC
(11 hours ago)
VFR
Wind Visibility
110° at 18 knots 8 miles
Clouds
  • Broken at 6,500' AGL
  • Overcast at 10,000' AGL
Conditions
  • Low drifting
  • Snow
Temperature Dewpoint
-22°C / -8°F -25°C / -13°F
Humidity Altimeter Pressure
77% 29.59" Hg 1002 hPa